Time;durP1;ratioP1;P1;durP2;ratioP2;P2;SDS_P1;SDS_P2;PMS_P1;PMS_P2;Temp;Humidity;BMP_temperature;BMP_pressure;BME280_temperature;BME280_humidity;BME280_pressure;Samples;Min_cycle;Max_cycle;Signal;HPM_P1;HPM_P2
2023/06/01 00:00:14;;;;;;;6.53;3.00;;;12.40;99.90;;;;;;5038113;28;20072;-81
2023/06/01 00:02:43;;;;;;;7.18;2.70;;;12.40;99.90;;;;;;5020302;28;20037;-81
2023/06/01 00:05:09;;;;;;;11.55;3.50;;;12.40;99.90;;;;;;5037968;28;20045;-81
2023/06/01 00:07:36;;;;;;;9.13;3.50;;;12.30;99.90;;;;;;5038635;28;20427;-81
2023/06/01 00:10:03;;;;;;;8.55;2.90;;;12.20;99.90;;;;;;5039174;28;20049;-81
2023/06/01 00:12:30;;;;;;;11.43;3.65;;;12.20;99.90;;;;;;5040388;28;20045;-81
2023/06/01 00:14:57;;;;;;;12.85;3.15;;;12.20;99.90;;;;;;5039835;28;20052;-81
2023/06/01 00:17:24;;;;;;;9.10;3.10;;;12.20;99.90;;;;;;5056725;28;20033;-81
2023/06/01 00:19:52;;;;;;;9.38;2.85;;;12.20;99.90;;;;;;5057806;28;20477;-81
2023/06/01 00:22:19;;;;;;;7.78;3.00;;;12.10;99.90;;;;;;5023575;28;20076;-81
2023/06/01 00:24:46;;;;;;;7.22;3.00;;;12.20;99.90;;;;;;5056198;28;20052;-81
2023/06/01 00:27:13;;;;;;;11.73;3.30;;;12.10;99.90;;;;;;5039894;28;20080;-81
2023/06/01 00:29:39;;;;;;;10.18;3.55;;;12.10;99.90;;;;;;5038976;28;20045;-81
2023/06/01 00:32:06;;;;;;;9.65;3.35;;;12.10;99.90;;;;;;5040429;28;20044;-81
2023/06/01 00:34:33;;;;;;;8.93;2.70;;;12.00;99.90;;;;;;5039278;28;20052;-81
2023/06/01 00:37:00;;;;;;;8.85;3.42;;;12.10;99.90;;;;;;5038698;28;20037;-81
2023/06/01 00:39:26;;;;;;;12.75;3.75;;;12.10;99.90;;;;;;5039824;28;20356;-81
2023/06/01 00:41:53;;;;;;;9.20;3.33;;;12.10;99.90;;;;;;5039576;28;20033;-81
2023/06/01 00:44:24;;;;;;;10.45;3.28;;;12.10;99.90;;;;;;5052987;28;20121;-82
2023/06/01 00:46:51;;;;;;;10.65;3.20;;;12.00;99.90;;;;;;5076192;28;20047;-81
2023/06/01 00:49:19;;;;;;;10.30;3.35;;;12.00;99.90;;;;;;5059071;28;20106;-82
2023/06/01 00:51:46;;;;;;;10.20;3.58;;;11.90;99.90;;;;;;5076099;28;20059;-81
2023/06/01 00:54:13;;;;;;;7.90;3.22;;;11.80;99.90;;;;;;5058865;28;20041;-81
2023/06/01 00:56:40;;;;;;;8.00;3.33;;;11.80;99.90;;;;;;5075018;28;20045;-81
2023/06/01 00:59:06;;;;;;;9.13;3.35;;;11.80;99.90;;;;;;5075881;28;20040;-81
2023/06/01 01:01:36;;;;;;;10.38;3.30;;;11.70;99.90;;;;;;5075840;28;20056;-81
2023/06/01 01:04:03;;;;;;;15.48;3.78;;;11.80;99.90;;;;;;5074553;28;20036;-81
2023/06/01 01:06:30;;;;;;;9.63;3.03;;;11.80;99.90;;;;;;5075976;28;20056;-81
2023/06/01 01:08:57;;;;;;;10.18;3.55;;;11.80;99.90;;;;;;5075944;28;20051;-81
2023/06/01 01:11:24;;;;;;;9.70;3.15;;;11.80;99.90;;;;;;5057971;28;20048;-81
2023/06/01 01:13:51;;;;;;;10.57;3.97;;;11.70;99.90;;;;;;5075381;28;20052;-81
2023/06/01 01:16:20;;;;;;;13.95;4.30;;;11.70;99.90;;;;;;5074603;28;20479;-81
2023/06/01 01:18:53;;;;;;;10.70;3.78;;;11.60;99.90;;;;;;5075535;28;20040;-81
2023/06/01 01:21:28;;;;;;;12.07;4.07;;;11.60;99.90;;;;;;5075544;28;20041;-81
2023/06/01 01:23:58;;;;;;;16.13;3.95;;;11.60;99.90;;;;;;5074123;28;20411;-81
2023/06/01 01:26:25;;;;;;;13.15;3.70;;;11.50;99.90;;;;;;5075318;28;20045;-81
2023/06/01 01:28:55;;;;;;;10.93;3.70;;;11.50;99.90;;;;;;5075319;28;20048;-81
2023/06/01 01:31:21;;;;;;;10.45;3.50;;;11.50;99.90;;;;;;5074162;28;20060;-82
2023/06/01 01:33:51;;;;;;;8.90;3.03;;;11.50;99.90;;;;;;5074318;28;20059;-82
2023/06/01 01:36:18;;;;;;;11.57;3.97;;;11.60;99.90;;;;;;5074654;28;20463;-82
2023/06/01 01:38:44;;;;;;;9.20;3.53;;;11.50;99.90;;;;;;5058976;28;20044;-81
2023/06/01 01:41:11;;;;;;;9.90;3.42;;;11.50;99.90;;;;;;5075711;28;20123;-81
2023/06/01 01:43:38;;;;;;;13.05;3.85;;;11.60;99.90;;;;;;5072835;28;20056;-81
2023/06/01 01:46:06;;;;;;;12.27;4.25;;;11.60;99.90;;;;;;5040090;28;20128;-81
2023/06/01 01:48:36;;;;;;;8.80;3.53;;;11.60;99.90;;;;;;5056511;28;20133;-81
2023/06/01 01:51:02;;;;;;;10.57;4.07;;;11.50;99.90;;;;;;5038320;28;20438;-81
2023/06/01 01:53:30;;;;;;;12.02;3.90;;;11.40;99.90;;;;;;5056982;28;20041;-80
2023/06/01 01:55:56;;;;;;;10.40;3.55;;;11.50;99.90;;;;;;5038797;28;20063;-81
2023/06/01 01:58:23;;;;;;;10.38;3.78;;;11.50;99.90;;;;;;5039210;28;20040;-81
2023/06/01 02:00:50;;;;;;;11.20;3.70;;;11.50;99.90;;;;;;5040397;28;20367;-81
2023/06/01 02:03:17;;;;;;;11.75;3.60;;;11.50;99.90;;;;;;5038193;28;20550;-80
2023/06/01 02:05:44;;;;;;;9.63;3.30;;;11.50;99.90;;;;;;5039419;28;20067;-80
2023/06/01 02:08:11;;;;;;;8.10;3.83;;;11.50;99.90;;;;;;5038143;28;20123;-82
2023/06/01 02:10:40;;;;;;;18.35;4.47;;;11.50;99.90;;;;;;5037005;28;20429;-81
2023/06/01 02:13:07;;;;;;;13.02;4.25;;;11.50;99.90;;;;;;5037910;28;20045;-81
2023/06/01 02:15:34;;;;;;;10.68;3.90;;;11.40;99.90;;;;;;5037781;28;20055;-81
2023/06/01 02:18:02;;;;;;;15.55;4.35;;;11.40;99.90;;;;;;5036812;28;20041;-81
2023/06/01 02:20:29;;;;;;;12.27;3.70;;;11.40;99.90;;;;;;5037797;28;20040;-81
2023/06/01 02:22:56;;;;;;;8.82;3.75;;;11.30;99.90;;;;;;5036406;28;20040;-81
2023/06/01 02:25:23;;;;;;;9.00;3.30;;;11.30;99.90;;;;;;5037163;28;20143;-81
2023/06/01 02:27:50;;;;;;;9.18;3.53;;;11.30;99.90;;;;;;5037809;28;20364;-81
2023/06/01 02:30:17;;;;;;;15.30;4.72;;;11.30;99.90;;;;;;5036845;28;20128;-82
2023/06/01 02:32:48;;;;;;;10.18;3.85;;;11.40;99.90;;;;;;5037317;28;20110;-81
2023/06/01 02:35:15;;;;;;;9.65;4.07;;;11.30;99.90;;;;;;5021207;28;20052;-80
2023/06/01 02:37:42;;;;;;;14.85;4.28;;;11.30;99.90;;;;;;5036660;28;20048;-81
2023/06/01 02:40:11;;;;;;;15.63;3.70;;;11.30;99.90;;;;;;5037428;28;20533;-80
2023/06/01 02:42:38;;;;;;;14.25;4.55;;;11.30;99.90;;;;;;5036019;28;20110;-81
2023/06/01 02:45:05;;;;;;;13.40;4.10;;;11.30;99.90;;;;;;5063664;28;20083;-80
2023/06/01 02:47:33;;;;;;;9.15;3.58;;;11.20;99.90;;;;;;5073961;28;20040;-80
2023/06/01 02:50:00;;;;;;;11.43;3.30;;;11.30;99.90;;;;;;5072951;28;20475;-81
2023/06/01 02:52:28;;;;;;;13.25;4.47;;;11.30;99.90;;;;;;5073517;28;20040;-80
2023/06/01 02:54:56;;;;;;;11.57;4.05;;;11.20;99.90;;;;;;5073824;28;20123;-81
2023/06/01 02:57:45;;;;;;;11.00;3.90;;;11.20;99.90;;;;;;5073493;28;20054;-81
2023/06/01 03:00:15;;;;;;;10.07;4.03;;;11.20;99.90;;;;;;5056297;28;20058;-81
2023/06/01 03:02:45;;;;;;;10.57;3.72;;;11.10;99.90;;;;;;5072462;28;20302;-81
2023/06/01 03:05:14;;;;;;;13.00;4.00;;;11.00;99.90;;;;;;5073600;28;20387;-81
2023/06/01 03:07:42;;;;;;;12.88;3.90;;;11.10;99.90;;;;;;5073623;28;20040;-81
2023/06/01 03:10:16;;;;;;;10.30;3.65;;;11.10;99.90;;;;;;5057064;28;20048;-81
2023/06/01 03:12:57;;;;;;;10.27;3.83;;;11.00;99.90;;;;;;5058565;28;20059;-81
2023/06/01 03:15:24;;;;;;;17.50;4.00;;;11.00;99.90;;;;;;5071214;28;20052;-81
2023/06/01 03:17:50;;;;;;;16.83;5.00;;;10.90;99.90;;;;;;5072617;28;20041;-81
2023/06/01 03:20:17;;;;;;;11.63;4.13;;;11.00;99.90;;;;;;5056849;28;20068;-81
2023/06/01 03:22:44;;;;;;;11.45;4.10;;;11.00;99.90;;;;;;5055437;28;20068;-81
2023/06/01 03:25:12;;;;;;;11.88;4.45;;;10.90;99.90;;;;;;5056835;28;20106;-82
2023/06/01 03:27:39;;;;;;;9.85;4.28;;;10.90;99.90;;;;;;5073314;28;20479;-81
2023/06/01 03:30:10;;;;;;;11.25;3.92;;;10.90;99.90;;;;;;5072763;28;20428;-81
2023/06/01 03:32:38;;;;;;;8.88;3.40;;;11.00;99.90;;;;;;5073232;28;20049;-81
2023/06/01 03:35:07;;;;;;;10.95;3.75;;;11.00;99.90;;;;;;5073312;28;20460;-82
2023/06/01 03:37:34;;;;;;;9.65;3.67;;;11.10;99.90;;;;;;5072519;28;20036;-82
2023/06/01 03:40:09;;;;;;;14.25;4.57;;;11.10;99.90;;;;;;5073832;28;20040;-81
2023/06/01 03:42:37;;;;;;;11.45;3.88;;;11.20;99.90;;;;;;5072019;28;20539;-81
2023/06/01 03:45:04;;;;;;;14.63;4.03;;;11.10;99.90;;;;;;5056770;28;20135;-81
2023/06/01 03:47:31;;;;;;;9.68;3.90;;;11.10;99.90;;;;;;5073194;28;20056;-81
2023/06/01 03:49:58;;;;;;;10.07;3.78;;;11.10;99.90;;;;;;5055969;28;20044;-81
2023/06/01 03:52:25;;;;;;;11.90;3.75;;;11.00;99.90;;;;;;5056296;28;20113;-81
2023/06/01 03:54:52;;;;;;;9.68;3.60;;;10.90;99.90;;;;;;5070595;28;20040;-81
2023/06/01 03:57:37;;;;;;;12.00;4.07;;;10.90;99.90;;;;;;5072733;28;20063;-82
2023/06/01 04:00:17;;;;;;;9.82;4.65;;;10.80;99.90;;;;;;5066364;28;20037;-81
2023/06/01 04:02:49;;;;;;;10.82;3.90;;;10.80;99.90;;;;;;5053220;28;20073;-81
2023/06/01 04:05:17;;;;;;;12.63;4.22;;;10.80;99.90;;;;;;5035786;28;20130;-81
2023/06/01 04:07:45;;;;;;;11.85;4.10;;;10.80;99.90;;;;;;5036574;28;20136;-81
2023/06/01 04:10:13;;;;;;;10.25;3.33;;;10.80;99.90;;;;;;5052056;28;20056;-81
2023/06/01 04:12:41;;;;;;;12.85;3.88;;;10.80;99.90;;;;;;5038933;28;20037;-82
2023/06/01 04:15:08;;;;;;;8.80;3.75;;;10.80;99.90;;;;;;5056350;28;20554;-81
2023/06/01 04:17:35;;;;;;;9.57;3.28;;;10.80;99.90;;;;;;5039331;28;20037;-81
2023/06/01 04:20:03;;;;;;;9.07;3.60;;;10.90;99.90;;;;;;5056631;28;20083;-81
2023/06/01 04:22:32;;;;;;;12.13;3.88;;;10.90;99.90;;;;;;5055703;28;20353;-81
2023/06/01 04:24:59;;;;;;;12.48;3.70;;;10.90;99.90;;;;;;5039635;28;20110;-81
2023/06/01 04:27:26;;;;;;;9.38;3.63;;;10.90;99.90;;;;;;5056491;28;20052;-81
2023/06/01 04:29:53;;;;;;;12.57;4.93;;;10.90;99.90;;;;;;5039012;28;20423;-81
2023/06/01 04:32:23;;;;;;;16.13;4.65;;;10.90;99.90;;;;;;5056385;28;20325;-81
2023/06/01 04:34:52;;;;;;;9.57;3.50;;;10.80;99.90;;;;;;5055952;28;20069;-81
2023/06/01 04:37:21;;;;;;;10.25;3.53;;;10.80;99.90;;;;;;5055242;28;20045;-81
2023/06/01 04:39:50;;;;;;;10.80;4.07;;;10.90;99.90;;;;;;5039766;28;20048;-81
2023/06/01 04:42:18;;;;;;;10.70;4.00;;;10.90;99.90;;;;;;5056276;28;20044;-81
2023/06/01 04:44:49;;;;;;;10.60;3.55;;;10.90;99.90;;;;;;5054634;28;20053;-81
2023/06/01 04:47:17;;;;;;;13.52;3.50;;;10.90;99.90;;;;;;5039892;28;20399;-81
2023/06/01 04:49:47;;;;;;;18.05;4.43;;;11.00;99.90;;;;;;5054198;28;20125;-81
2023/06/01 04:52:14;;;;;;;9.70;3.53;;;11.00;99.90;;;;;;5076036;28;20089;-82
2023/06/01 04:54:41;;;;;;;14.40;4.20;;;11.00;99.90;;;;;;5058536;28;20064;-81
2023/06/01 04:57:08;;;;;;;12.95;3.60;;;11.00;99.90;;;;;;5075170;28;20037;-84
2023/06/01 04:59:35;;;;;;;12.85;3.97;;;11.00;99.90;;;;;;5076219;28;20036;-83
2023/06/01 05:02:01;;;;;;;11.27;3.78;;;11.00;99.90;;;;;;5059353;28;20074;-82
2023/06/01 05:04:28;;;;;;;15.00;4.00;;;11.10;99.90;;;;;;5058008;28;20036;-83
2023/06/01 05:06:55;;;;;;;11.00;3.78;;;11.10;99.90;;;;;;5059206;28;20379;-83
2023/06/01 05:09:23;;;;;;;10.48;3.67;;;11.20;99.90;;;;;;5058187;28;20067;-82
2023/06/01 05:11:50;;;;;;;7.40;2.78;;;11.10;99.90;;;;;;5076609;28;20368;-82
2023/06/01 05:14:17;;;;;;;14.65;3.88;;;11.00;99.90;;;;;;5058727;28;20391;-82
2023/06/01 05:16:44;;;;;;;13.23;3.65;;;11.00;99.90;;;;;;5074599;28;20486;-83
2023/06/01 05:19:12;;;;;;;10.52;3.70;;;11.00;99.90;;;;;;5075628;28;20122;-83
2023/06/01 05:21:40;;;;;;;9.90;4.28;;;11.00;99.90;;;;;;5075457;28;20045;-83
2023/06/01 05:24:07;;;;;;;13.25;3.78;;;11.00;99.90;;;;;;5056713;28;20383;-83
2023/06/01 05:26:34;;;;;;;9.98;3.90;;;11.00;99.90;;;;;;5075397;28;20068;-83
2023/06/01 05:29:02;;;;;;;12.45;4.57;;;11.10;99.90;;;;;;5059074;28;20466;-83
2023/06/01 05:31:30;;;;;;;11.77;4.18;;;11.10;99.90;;;;;;5074627;28;20036;-83
2023/06/01 05:33:57;;;;;;;14.65;4.13;;;11.00;99.90;;;;;;5074763;28;20455;-83
2023/06/01 05:36:27;;;;;;;9.85;4.07;;;11.00;99.90;;;;;;5058574;28;20082;-82
2023/06/01 05:38:55;;;;;;;14.38;3.88;;;10.90;99.90;;;;;;5058900;28;20139;-83
2023/06/01 05:41:22;;;;;;;10.88;3.95;;;11.00;99.90;;;;;;5058586;28;20040;-82
2023/06/01 05:43:50;;;;;;;13.30;4.00;;;11.00;99.90;;;;;;5056425;28;20399;-83
2023/06/01 05:46:18;;;;;;;11.80;4.13;;;11.10;99.90;;;;;;5074818;28;20045;-83
2023/06/01 05:48:46;;;;;;;10.10;3.80;;;11.10;99.90;;;;;;5058535;28;20040;-82
2023/06/01 05:51:13;;;;;;;11.25;3.33;;;11.10;99.90;;;;;;5057473;28;20044;-82
2023/06/01 05:53:41;;;;;;;12.10;4.45;;;11.10;99.90;;;;;;5074649;28;20040;-82
2023/06/01 05:56:08;;;;;;;10.77;4.00;;;11.20;99.90;;;;;;5074050;28;20379;-82
2023/06/01 05:58:35;;;;;;;10.77;3.65;;;11.20;99.90;;;;;;5074765;28;20047;-83
2023/06/01 06:01:03;;;;;;;12.93;4.25;;;11.20;99.90;;;;;;5074846;28;20049;-82
2023/06/01 06:03:30;;;;;;;11.40;3.50;;;11.20;99.90;;;;;;5073479;28;20044;-82
2023/06/01 06:05:57;;;;;;;11.85;3.95;;;11.10;99.90;;;;;;5074791;28;20052;-82
2023/06/01 06:08:25;;;;;;;10.98;3.92;;;11.10;99.90;;;;;;5057782;28;20438;-82
2023/06/01 06:10:51;;;;;;;12.80;3.88;;;11.10;99.90;;;;;;5056967;28;20350;-82
2023/06/01 06:13:18;;;;;;;16.30;3.97;;;11.20;99.90;;;;;;5074991;28;20479;-82
2023/06/01 06:15:45;;;;;;;11.43;3.45;;;11.30;99.90;;;;;;5057660;28;20040;-83
2023/06/01 06:18:12;;;;;;;10.55;3.92;;;11.40;99.90;;;;;;5057959;28;20036;-82
2023/06/01 06:20:39;;;;;;;14.30;3.85;;;11.40;99.90;;;;;;5075457;28;20051;-82
2023/06/01 06:23:06;;;;;;;10.63;4.00;;;11.50;99.90;;;;;;5056519;28;20044;-83
2023/06/01 06:25:32;;;;;;;10.52;3.72;;;11.40;99.90;;;;;;5074340;28;20044;-82
2023/06/01 06:28:00;;;;;;;9.40;3.50;;;11.40;99.90;;;;;;5075017;28;20382;-83
2023/06/01 06:30:27;;;;;;;10.40;3.88;;;11.50;99.90;;;;;;5074173;28;20074;-82
2023/06/01 06:32:54;;;;;;;12.70;3.88;;;11.50;99.90;;;;;;5074271;28;20086;-83
2023/06/01 06:35:21;;;;;;;12.68;3.75;;;11.60;99.90;;;;;;5073003;28;20046;-81
2023/06/01 06:37:48;;;;;;;12.10;3.33;;;11.60;99.90;;;;;;5073312;28;20079;-83
2023/06/01 06:40:15;;;;;;;12.07;3.63;;;11.60;99.90;;;;;;5075641;28;20044;-83
2023/06/01 06:42:42;;;;;;;11.23;3.78;;;11.70;99.90;;;;;;5076453;28;20086;-84
2023/06/01 06:45:08;;;;;;;10.82;3.22;;;11.70;99.90;;;;;;5058122;28;20082;-82
2023/06/01 06:47:35;;;;;;;10.70;3.60;;;11.70;99.90;;;;;;5065418;28;20036;-83
2023/06/01 06:50:02;;;;;;;11.35;3.72;;;11.70;99.90;;;;;;5052558;28;20382;-83
2023/06/01 06:52:29;;;;;;;12.82;3.17;;;11.70;99.90;;;;;;5054866;28;20040;-81
2023/06/01 06:54:56;;;;;;;13.25;4.10;;;11.70;99.90;;;;;;5054296;28;20040;-82
2023/06/01 06:57:22;;;;;;;10.07;3.83;;;11.70;99.90;;;;;;5036108;28;20131;-82
2023/06/01 06:59:49;;;;;;;12.38;3.95;;;11.70;99.90;;;;;;5037340;28;20430;-83
2023/06/01 07:02:16;;;;;;;14.20;3.70;;;11.80;99.90;;;;;;5053587;28;20076;-84
2023/06/01 07:04:43;;;;;;;8.13;3.33;;;11.80;99.90;;;;;;5052154;28;20563;-83
2023/06/01 07:07:09;;;;;;;15.15;3.97;;;11.90;99.90;;;;;;5053739;28;20098;-82
2023/06/01 07:09:36;;;;;;;14.35;4.50;;;11.90;99.90;;;;;;5052947;28;20052;-82
2023/06/01 07:12:03;;;;;;;11.27;4.18;;;11.90;99.90;;;;;;5053707;28;20041;-82
2023/06/01 07:14:30;;;;;;;12.05;4.07;;;11.90;99.90;;;;;;5036884;28;20056;-82
2023/06/01 07:19:42;;;;;;;13.07;3.92;;;11.90;99.90;;;;;;5053516;28;20076;-82
2023/06/01 07:22:09;;;;;;;13.65;4.93;;;12.00;99.90;;;;;;5053507;28;20044;-83
2023/06/01 07:24:36;;;;;;;10.05;4.43;;;12.00;99.90;;;;;;5053642;28;20044;-83
2023/06/01 07:27:05;;;;;;;13.82;4.35;;;12.00;99.90;;;;;;5054160;28;20447;-81
2023/06/01 07:29:32;;;;;;;10.32;3.80;;;12.10;99.90;;;;;;5052924;28;20434;-81
2023/06/01 07:31:59;;;;;;;10.38;3.78;;;12.10;99.90;;;;;;5054315;28;20033;-81
2023/06/01 07:34:27;;;;;;;14.88;4.47;;;12.20;99.90;;;;;;5054095;28;20088;-81
2023/06/01 07:36:58;;;;;;;10.70;3.55;;;12.20;99.90;;;;;;5052807;28;20475;-81
2023/06/01 07:39:41;;;;;;;11.77;4.72;;;12.30;99.90;;;;;;5054468;28;20037;-82
2023/06/01 07:42:08;;;;;;;12.20;3.72;;;12.30;99.90;;;;;;5054244;28;20045;-81
2023/06/01 07:44:34;;;;;;;9.50;3.67;;;12.30;99.90;;;;;;5052336;28;20053;-81
2023/06/01 07:49:49;;;;;;;11.93;4.28;;;12.40;99.90;;;;;;5093875;28;20075;-83
2023/06/01 07:52:17;;;;;;;18.50;4.32;;;12.50;99.90;;;;;;5077631;28;20086;-87
2023/06/01 07:54:44;;;;;;;17.15;4.28;;;12.50;99.90;;;;;;5077114;28;20454;-81
2023/06/01 07:57:11;;;;;;;9.52;3.50;;;12.60;99.90;;;;;;5076096;28;20044;-80
2023/06/01 07:59:38;;;;;;;13.05;4.18;;;12.70;99.90;;;;;;5077226;28;20049;-80
2023/06/01 08:02:08;;;;;;;11.13;4.00;;;12.70;99.90;;;;;;5074535;28;20083;-79
2023/06/01 08:04:35;;;;;;;9.73;3.83;;;12.80;99.90;;;;;;5075712;28;20403;-80
2023/06/01 08:07:07;;;;;;;15.13;3.78;;;12.90;99.90;;;;;;5076867;28;20051;-82
2023/06/01 08:09:33;;;;;;;10.90;3.60;;;13.00;99.90;;;;;;5075719;28;20056;-80
2023/06/01 08:12:00;;;;;;;11.05;3.75;;;12.80;99.90;;;;;;5076579;28;20068;-80
2023/06/01 08:14:27;;;;;;;11.00;3.70;;;12.70;99.90;;;;;;5059649;28;20087;-83
2023/06/01 08:16:55;;;;;;;10.77;3.92;;;12.80;99.90;;;;;;5075536;28;20093;-80
2023/06/01 08:19:22;;;;;;;12.90;4.03;;;12.90;99.90;;;;;;5076726;28;20048;-80
2023/06/01 08:21:49;;;;;;;14.43;4.07;;;13.00;99.90;;;;;;5077623;28;20037;-81
2023/06/01 08:24:17;;;;;;;8.35;3.65;;;13.00;99.90;;;;;;5076191;28;20106;-82
2023/06/01 08:26:43;;;;;;;10.07;3.72;;;13.10;99.90;;;;;;5076430;28;20041;-83
2023/06/01 08:29:11;;;;;;;11.90;3.92;;;13.20;99.90;;;;;;5076597;28;20044;-81
2023/06/01 08:31:38;;;;;;;11.18;4.05;;;13.20;99.90;;;;;;5077405;28;20052;-83
2023/06/01 08:34:05;;;;;;;10.73;3.65;;;13.40;99.90;;;;;;5076067;28;20044;-83
2023/06/01 08:36:32;;;;;;;10.52;3.33;;;13.40;99.90;;;;;;5075365;28;20089;-83
2023/06/01 08:38:59;;;;;;;11.68;3.67;;;13.50;99.90;;;;;;5076550;28;20045;-83
2023/06/01 08:41:25;;;;;;;15.00;3.78;;;13.60;99.90;;;;;;5059640;28;20037;-83
2023/06/01 08:43:52;;;;;;;8.90;3.47;;;13.70;99.90;;;;;;5076397;28;20040;-83
2023/06/01 08:46:19;;;;;;;14.98;4.18;;;13.80;99.90;;;;;;5059686;28;20036;-83
2023/06/01 08:48:46;;;;;;;11.25;3.42;;;13.80;99.90;;;;;;5074671;28;20048;-84
2023/06/01 08:51:13;;;;;;;15.45;4.13;;;13.90;99.90;;;;;;5083682;28;20044;-84
2023/06/01 08:53:42;;;;;;;10.30;3.05;;;13.80;99.90;;;;;;5073087;28;20494;-84
2023/06/01 08:56:09;;;;;;;12.63;3.83;;;13.80;99.90;;;;;;5046068;28;20106;-85
2023/06/01 08:58:35;;;;;;;13.85;4.10;;;13.70;99.90;;;;;;5074085;28;20032;-86
2023/06/01 09:01:02;;;;;;;11.65;4.30;;;13.70;99.90;;;;;;5052299;28;20059;-86
2023/06/01 09:03:29;;;;;;;14.38;4.15;;;13.80;99.90;;;;;;5080733;28;20458;-86
2023/06/01 09:05:56;;;;;;;15.63;4.07;;;13.70;99.90;;;;;;5056402;28;20131;-86
2023/06/01 09:08:26;;;;;;;14.68;3.88;;;13.70;99.90;;;;;;5038555;28;20041;-90
2023/06/01 09:10:55;;;;;;;13.20;4.55;;;13.80;99.90;;;;;;5054652;28;20064;-87
2023/06/01 09:13:22;;;;;;;12.45;4.13;;;13.90;99.90;;;;;;5040169;28;20467;-87
2023/06/01 09:15:49;;;;;;;11.52;3.72;;;14.00;99.90;;;;;;5042860;28;20044;-88
2023/06/01 09:18:16;;;;;;;18.70;4.43;;;14.10;99.90;;;;;;5058251;28;20098;-86
2023/06/01 09:20:44;;;;;;;9.32;3.70;;;14.10;99.90;;;;;;5048933;28;20044;-86
2023/06/01 09:23:11;;;;;;;14.32;4.63;;;14.00;99.90;;;;;;5044039;28;20430;-88
2023/06/01 09:25:38;;;;;;;11.98;4.20;;;14.00;99.90;;;;;;5055515;28;20049;-86
2023/06/01 09:28:06;;;;;;;13.18;4.10;;;14.00;99.90;;;;;;5055220;28;20466;-85
2023/06/01 09:30:33;;;;;;;11.90;4.07;;;14.10;99.90;;;;;;5053746;28;20045;-83
2023/06/01 09:32:59;;;;;;;14.43;3.90;;;14.10;99.90;;;;;;5058729;28;20368;-84
2023/06/01 09:35:27;;;;;;;9.88;3.63;;;14.00;99.90;;;;;;5075098;28;20044;-84
2023/06/01 09:37:54;;;;;;;8.45;3.50;;;14.20;99.90;;;;;;5058142;28;20037;-84
2023/06/01 09:40:21;;;;;;;9.88;4.18;;;14.30;99.90;;;;;;5054986;28;20044;-85
2023/06/01 09:42:50;;;;;;;12.68;4.18;;;14.40;99.90;;;;;;5054460;28;20414;-84
2023/06/01 09:45:17;;;;;;;11.63;3.90;;;14.30;99.90;;;;;;5038301;28;20055;-84
2023/06/01 09:47:43;;;;;;;10.27;4.10;;;14.40;99.90;;;;;;5055301;28;20041;-85
2023/06/01 09:50:11;;;;;;;9.82;3.85;;;14.50;99.90;;;;;;5071419;28;20147;-84
2023/06/01 09:52:37;;;;;;;15.70;4.22;;;14.50;99.90;;;;;;5058902;28;20052;-84
2023/06/01 09:55:04;;;;;;;12.95;4.70;;;14.60;99.90;;;;;;5038086;28;20390;-84
2023/06/01 09:57:31;;;;;;;10.23;4.15;;;14.60;99.90;;;;;;5053781;28;20066;-84
2023/06/01 09:59:58;;;;;;;11.68;3.65;;;14.70;99.90;;;;;;5054095;28;20063;-84
2023/06/01 10:02:25;;;;;;;10.68;4.35;;;14.60;99.90;;;;;;5054360;28;20041;-84
2023/06/01 10:04:53;;;;;;;8.82;3.70;;;14.70;99.90;;;;;;5037911;28;20338;-84
2023/06/01 10:07:20;;;;;;;10.68;3.65;;;14.90;99.90;;;;;;5054769;28;20135;-84
2023/06/01 10:09:46;;;;;;;18.20;4.65;;;15.10;99.90;;;;;;5052339;28;20049;-84
2023/06/01 10:12:13;;;;;;;10.52;3.92;;;15.20;99.90;;;;;;5054472;28;20064;-84
2023/06/01 10:14:40;;;;;;;14.07;3.95;;;15.30;99.90;;;;;;5054476;28;20140;-84
2023/06/01 10:17:07;;;;;;;10.95;4.30;;;15.40;99.90;;;;;;5052825;28;20106;-84
2023/06/01 10:19:34;;;;;;;13.68;4.25;;;15.40;99.90;;;;;;5054095;28;20423;-84
2023/06/01 10:22:00;;;;;;;11.45;3.88;;;15.70;99.90;;;;;;5063066;28;20041;-84
2023/06/01 10:24:28;;;;;;;12.93;4.10;;;15.80;99.90;;;;;;5056426;28;20076;-84
2023/06/01 10:26:54;;;;;;;13.45;4.75;;;16.00;99.90;;;;;;5073912;28;20040;-84
2023/06/01 10:29:21;;;;;;;12.52;4.07;;;16.00;99.90;;;;;;5073675;28;20042;-84
2023/06/01 10:31:48;;;;;;;10.85;4.05;;;16.00;99.90;;;;;;5053625;28;20111;-86
2023/06/01 10:34:15;;;;;;;10.50;4.20;;;16.00;99.90;;;;;;5054085;28;20056;-83
2023/06/01 10:36:42;;;;;;;11.38;3.88;;;16.10;99.90;;;;;;5052675;28;20037;-84
2023/06/01 10:39:08;;;;;;;10.02;4.00;;;16.20;99.90;;;;;;5054315;28;20036;-83
2023/06/01 10:41:37;;;;;;;11.05;4.20;;;16.20;99.90;;;;;;5063149;28;20114;-82
2023/06/01 10:44:04;;;;;;;9.52;3.83;;;16.50;99.90;;;;;;5070670;28;20139;-83
2023/06/01 10:46:31;;;;;;;11.65;4.22;;;16.50;99.90;;;;;;5073782;28;20464;-84
2023/06/01 10:48:58;;;;;;;16.27;5.05;;;16.70;99.90;;;;;;5056949;28;20391;-83
2023/06/01 10:51:25;;;;;;;12.80;4.32;;;16.70;99.90;;;;;;5074058;28;20498;-82
2023/06/01 10:53:52;;;;;;;12.68;4.30;;;16.70;99.90;;;;;;5073874;28;20051;-82
2023/06/01 10:56:23;;;;;;;10.63;4.00;;;16.70;99.90;;;;;;5073549;28;20040;-82
2023/06/01 10:58:55;;;;;;;12.88;4.03;;;16.80;99.90;;;;;;5074662;28;20043;-83
2023/06/01 11:01:35;;;;;;;10.98;4.40;;;16.70;99.90;;;;;;5073883;28;20044;-83
2023/06/01 11:04:02;;;;;;;11.70;4.15;;;16.90;99.90;;;;;;5072713;28;20066;-83
2023/06/01 11:06:29;;;;;;;9.68;4.40;;;17.00;99.90;;;;;;5073798;28;20044;-82
2023/06/01 11:08:55;;;;;;;8.32;4.00;;;17.10;99.90;;;;;;5074234;28;20040;-82
2023/06/01 11:11:26;;;;;;;10.85;4.47;;;17.30;99.90;;;;;;5056353;28;20143;-82
2023/06/01 11:13:52;;;;;;;12.23;4.72;;;17.60;99.90;;;;;;5074519;28;20114;-83
2023/06/01 11:16:20;;;;;;;15.60;5.20;;;17.70;99.90;;;;;;5069363;28;20424;-84
2023/06/01 11:18:49;;;;;;;11.75;4.75;;;17.90;99.90;;;;;;5058737;28;20136;-84
2023/06/01 11:21:16;;;;;;;13.85;4.28;;;17.90;99.90;;;;;;5067477;28;20414;-83
2023/06/01 11:23:43;;;;;;;10.57;4.18;;;18.00;99.90;;;;;;5055363;28;20098;-83
2023/06/01 11:26:13;;;;;;;9.35;3.97;;;17.80;99.90;;;;;;5073421;28;20371;-83
2023/06/01 11:28:40;;;;;;;10.27;4.25;;;17.80;99.90;;;;;;5073352;28;20060;-82
2023/06/01 11:31:06;;;;;;;11.32;4.40;;;17.90;99.90;;;;;;5072773;28;20052;-84
2023/06/01 11:33:33;;;;;;;11.32;4.30;;;18.00;99.90;;;;;;5056583;28;20110;-84
2023/06/01 11:36:00;;;;;;;11.68;4.65;;;18.10;99.90;;;;;;5073016;28;20075;-84
2023/06/01 11:38:28;;;;;;;15.93;5.03;;;18.10;99.90;;;;;;5073737;28;20136;-84
2023/06/01 11:40:55;;;;;;;13.93;4.57;;;18.10;99.90;;;;;;5073900;28;20117;-84
2023/06/01 11:43:21;;;;;;;10.95;4.65;;;18.20;99.90;;;;;;5055144;28;20036;-84
2023/06/01 11:45:48;;;;;;;12.48;4.45;;;18.40;99.90;;;;;;5020381;28;20410;-84
2023/06/01 11:48:17;;;;;;;12.35;4.32;;;18.60;99.90;;;;;;5033992;28;20107;-85
2023/06/01 11:50:46;;;;;;;17.52;4.85;;;18.90;99.90;;;;;;5019210;28;20049;-83
2023/06/01 11:53:12;;;;;;;14.27;5.35;;;18.90;99.90;;;;;;5036818;28;20045;-83
2023/06/01 11:55:39;;;;;;;10.48;4.60;;;18.80;99.90;;;;;;5020208;28;20045;-84
2023/06/01 12:00:52;;;;;;;10.75;3.85;;;18.50;99.90;;;;;;5053808;28;20040;-82
2023/06/01 12:03:19;;;;;;;11.63;4.97;;;19.00;99.90;;;;;;5035981;28;20134;-83
2023/06/01 12:05:46;;;;;;;12.80;4.95;;;19.50;99.90;;;;;;5036766;28;20423;-82
2023/06/01 12:08:13;;;;;;;11.20;4.60;;;20.10;99.90;;;;;;5036555;28;20460;-83
2023/06/01 12:10:40;;;;;;;12.52;4.68;;;20.90;99.90;;;;;;5035193;28;20359;-82
2023/06/01 12:13:07;;;;;;;11.48;4.43;;;21.10;99.90;;;;;;5036337;28;20446;-83
2023/06/01 12:15:34;;;;;;;14.38;5.60;;;21.00;99.90;;;;;;5036285;28;20056;-81
2023/06/01 12:18:01;;;;;;;12.55;5.00;;;21.20;99.90;;;;;;5052678;28;20123;-82
2023/06/01 12:20:28;;;;;;;10.80;4.07;;;20.90;99.90;;;;;;5036144;28;20420;-83
2023/06/01 12:22:55;;;;;;;13.40;5.50;;;20.40;99.90;;;;;;5035788;28;20040;-82
2023/06/01 12:25:22;;;;;;;14.98;4.57;;;20.00;99.90;;;;;;5036468;28;20427;-83
2023/06/01 12:30:34;;;;;;;11.80;4.25;;;19.70;99.90;;;;;;5035049;28;20476;-82
2023/06/01 12:33:01;;;;;;;12.07;5.13;;;19.30;99.90;;;;;;5037479;28;20098;-83
2023/06/01 12:35:28;;;;;;;14.82;5.35;;;19.60;99.90;;;;;;5057336;28;20068;-83
2023/06/01 12:37:56;;;;;;;13.65;4.95;;;19.60;99.90;;;;;;5056347;28;20460;-84
2023/06/01 12:40:26;;;;;;;11.63;4.72;;;19.60;99.90;;;;;;5019469;28;20041;-89
2023/06/01 12:42:57;;;;;;;12.02;4.68;;;20.60;99.90;;;;;;5019495;28;20065;-87
2023/06/01 12:45:24;;;;;;;12.93;4.97;;;21.40;99.90;;;;;;5019887;28;20050;-84
2023/06/01 12:47:53;;;;;;;14.65;5.70;;;22.00;99.90;;;;;;5003517;28;20045;-84
2023/06/01 12:50:20;;;;;;;12.48;6.35;;;22.60;99.90;;;;;;5038395;28;20064;-81